Time;durP1;ratioP1;P1;durP2;ratioP2;P2;SDS_P1;SDS_P2;PMS_P1;PMS_P2;Temp;Humidity;BMP_temperature;BMP_pressure;BME280_temperature;BME280_humidity;BME280_pressure;Samples;Min_cycle;Max_cycle;Signal;HPM_P1;HPM_P2
2022/03/21 00:00:54;;;;;;;23.43;9.37;;;;;;;-0.28;45.41;102310.84;31486467;28;20041;-76
2022/03/21 00:15:58;;;;;;;20.10;9.30;;;;;;;-0.39;46.08;102289.66;31496484;28;20072;-73
2022/03/21 00:31:00;;;;;;;13.50;8.17;;;;;;;-0.45;46.94;102274.78;31491930;28;20048;-74
2022/03/21 00:46:03;;;;;;;22.33;9.70;;;;;;;-0.70;46.61;102267.97;31492115;28;20052;-74
2022/03/21 01:01:05;;;;;;;17.23;8.13;;;;;;;-0.74;46.54;102250.19;31494123;28;20596;-74
2022/03/21 01:16:09;;;;;;;19.97;9.10;;;;;;;-0.82;47.15;102242.81;31481171;28;20071;-75
2022/03/21 01:31:11;;;;;;;13.97;7.57;;;;;;;-0.87;46.79;102246.34;31481232;28;20052;-75
2022/03/21 01:46:13;;;;;;;17.10;8.20;;;;;;;-0.87;47.13;102253.56;31482583;28;20530;-74
2022/03/21 02:01:16;;;;;;;17.07;8.80;;;;;;;-0.70;46.60;102240.50;31477345;28;20059;-74
2022/03/21 02:16:18;;;;;;;20.73;8.13;;;;;;;-0.92;47.33;102242.97;31479900;28;20052;-73
2022/03/21 02:31:21;;;;;;;17.07;7.97;;;;;;;-1.01;49.46;102228.72;31480393;28;20055;-74
2022/03/21 02:46:24;;;;;;;16.33;8.63;;;;;;;-1.00;47.93;102215.09;31474939;28;20044;-74
2022/03/21 03:01:27;;;;;;;13.60;7.10;;;;;;;-1.01;49.28;102210.06;31484003;28;20487;-74
2022/03/21 03:16:30;;;;;;;12.43;6.60;;;;;;;-1.05;50.47;102202.63;31490052;28;20476;-74
2022/03/21 03:31:35;;;;;;;15.70;7.40;;;;;;;-1.17;50.38;102186.25;31495904;28;20060;-75
2022/03/21 03:46:37;;;;;;;11.73;6.20;;;;;;;-1.18;50.55;102176.66;31489771;28;20045;-75
2022/03/21 04:01:39;;;;;;;18.67;6.60;;;;;;;-0.97;51.31;102155.88;31483406;28;20540;-73
2022/03/21 04:16:44;;;;;;;16.07;7.20;;;;;;;-0.79;50.59;102154.25;31480518;28;20109;-74
2022/03/21 04:31:46;;;;;;;11.13;6.80;;;;;;;-0.29;51.82;102146.44;31491750;28;20405;-74
2022/03/21 04:46:48;;;;;;;17.83;8.53;;;;;;;0.43;50.24;102147.41;31473921;28;20048;-74
2022/03/21 05:01:51;;;;;;;22.00;8.30;;;;;;;1.21;49.61;102169.44;31486645;28;20068;-74
2022/03/21 05:16:54;;;;;;;19.70;8.63;;;;;;;1.80;48.22;102164.72;31477978;28;20044;-74
2022/03/21 05:31:56;;;;;;;24.90;10.67;;;;;;;2.52;48.54;102167.00;31474500;28;20416;-73
2022/03/21 05:46:58;;;;;;;35.30;12.67;;;;;;;3.66;47.03;102148.56;31456138;28;20052;-73
2022/03/21 06:02:00;;;;;;;28.80;12.20;;;;;;;5.10;44.93;102120.25;31465039;28;20048;-74
2022/03/21 06:17:03;;;;;;;29.53;13.30;;;;;;;7.11;41.98;102124.13;31479711;28;20139;-74
2022/03/21 06:32:06;;;;;;;41.80;15.23;;;;;;;8.46;39.53;102105.75;31468830;28;20052;-73
2022/03/21 06:47:10;;;;;;;25.40;12.60;;;;;;;10.09;36.96;102090.75;31457575;28;20468;-73
2022/03/21 07:02:12;;;;;;;32.23;12.63;;;;;;;11.28;34.65;102084.41;31462286;28;20396;-73
2022/03/21 07:17:22;;;;;;;21.63;11.37;;;;;;;12.26;32.72;102058.28;31465226;28;20052;-72
2022/03/21 07:32:24;;;;;;;19.90;10.17;;;;;;;13.02;31.71;102039.00;31483256;28;20053;-73
2022/03/21 07:47:27;;;;;;;22.30;9.30;;;;;;;14.08;29.08;102029.19;31491270;28;20501;-74
2022/03/21 08:02:29;;;;;;;15.80;7.10;;;;;;;14.51;26.68;102019.63;31480832;28;20056;-74
2022/03/21 08:17:33;;;;;;;18.83;9.03;;;;;;;15.25;27.52;102029.28;31500487;28;20057;-72
2022/03/21 08:32:35;;;;;;;11.50;6.47;;;;;;;15.15;24.91;102008.25;31489967;28;20050;-74
2022/03/21 08:47:38;;;;;;;11.17;5.10;;;;;;;15.49;24.02;102010.31;31480099;28;20049;-74
2022/03/21 09:02:46;;;;;;;14.83;6.77;;;;;;;15.81;23.55;101996.34;31510711;28;20072;-73
2022/03/21 09:17:48;;;;;;;13.10;6.47;;;;;;;16.03;24.00;101962.03;31488616;28;20404;-81
2022/03/21 09:32:50;;;;;;;15.67;5.87;;;;;;;16.54;23.36;101951.91;31497614;28;20060;-77
2022/03/21 10:03:13;;;;;;;8.13;3.17;;;;;;;16.60;23.63;101923.63;31484532;28;20052;-81
2022/03/21 10:18:15;;;;;;;6.07;3.10;;;;;;;16.62;24.34;101915.75;31485845;28;20086;-82
2022/03/21 10:33:23;;;;;;;12.38;4.70;;;;;;;16.55;25.04;101882.94;31487452;28;20143;-85
2022/03/21 10:48:30;;;;;;;6.97;4.03;;;;;;;17.17;25.24;101862.31;31478394;28;20532;-77
2022/03/21 11:03:33;;;;;;;10.45;2.97;;;;;;;17.13;25.40;101823.19;31453603;28;20056;-73
2022/03/21 11:18:35;;;;;;;6.32;2.38;;;;;;;16.85;25.43;101823.72;31464187;28;20045;-73
2022/03/21 11:34:02;;;;;;;10.27;2.65;;;;;;;17.82;24.59;101785.69;31495881;28;20063;-74
2022/03/21 11:49:25;;;;;;;4.05;2.22;;;;;;;18.23;24.38;101765.06;31465085;28;20048;-74
2022/03/21 12:04:29;;;;;;;5.95;1.98;;;;;;;17.96;25.42;101755.09;31479403;28;20057;-75
2022/03/21 12:35:03;;;;;;;3.67;2.00;;;;;;;13.88;33.19;101739.47;31502766;28;20051;-80
2022/03/21 12:50:06;;;;;;;5.23;1.93;;;;;;;13.19;35.01;101729.38;31506728;28;20586;-79
2022/03/21 13:20:37;;;;;;;2.20;1.40;;;;;;;13.10;36.75;101697.03;31468913;28;20048;-77
2022/03/21 13:35:51;;;;;;;4.00;1.70;;;;;;;13.06;37.97;101687.31;31486618;28;20080;-80
2022/03/21 13:50:59;;;;;;;3.57;1.80;;;;;;;13.04;38.17;101685.00;31463157;28;20048;-76
2022/03/21 14:06:04;;;;;;;5.20;1.60;;;;;;;12.81;39.02;101660.16;31485225;28;20056;-80
2022/03/21 14:21:08;;;;;;;4.83;2.00;;;;;;;12.74;39.85;101662.94;31466061;28;20064;-83
2022/03/21 14:36:19;;;;;;;10.70;1.90;;;;;;;12.63;40.19;101660.25;31474286;28;20112;-79
2022/03/21 14:51:26;;;;;;;5.17;2.20;;;;;;;12.48;40.82;101669.63;31458157;28;20148;-74
2022/03/21 15:06:28;;;;;;;5.37;2.87;;;;;;;12.31;40.68;101671.22;31479727;28;20523;-78
2022/03/21 15:21:30;;;;;;;8.40;2.77;;;;;;;12.11;41.61;101667.34;31493127;28;20048;-86
2022/03/21 15:51:53;;;;;;;8.17;2.73;;;;;;;11.51;43.87;101684.41;31494892;28;20135;-82
2022/03/21 16:06:56;;;;;;;10.63;3.50;;;;;;;11.12;44.97;101690.53;31496658;28;20067;-79
2022/03/21 16:21:58;;;;;;;10.73;4.90;;;;;;;10.82;45.52;101704.38;31457960;28;20044;-81
2022/03/21 16:37:01;;;;;;;10.00;3.93;;;;;;;10.50;47.37;101708.84;31493574;28;20048;-80
2022/03/21 16:52:11;;;;;;;7.70;3.67;;;;;;;10.22;48.10;101714.88;31486184;28;20060;-85
2022/03/21 17:07:14;;;;;;;9.90;3.67;;;;;;;9.91;49.35;101714.22;31486490;28;20068;-79
2022/03/21 17:37:37;;;;;;;8.67;3.63;;;;;;;9.13;50.92;101724.25;31463034;28;20135;-79
2022/03/21 17:52:41;;;;;;;10.27;3.53;;;;;;;8.80;53.39;101730.41;31517683;28;20056;-82
2022/03/21 18:07:43;;;;;;;8.40;3.27;;;;;;;8.53;55.30;101732.34;31482086;28;20048;-85
2022/03/21 18:22:47;;;;;;;5.50;3.00;;;;;;;8.33;54.69;101733.56;31496013;28;20084;-85
2022/03/21 18:37:50;;;;;;;6.37;2.47;;;;;;;8.04;56.67;101735.00;31493548;28;20140;-73
2022/03/21 18:52:55;;;;;;;5.00;2.60;;;;;;;7.85;58.35;101749.38;31479671;28;20494;-74
2022/03/21 19:07:57;;;;;;;3.87;2.30;;;;;;;7.68;60.26;101751.75;31487570;28;20052;-76
2022/03/21 19:23:00;;;;;;;5.73;2.50;;;;;;;7.39;61.67;101753.91;31478929;28;20496;-75
2022/03/21 19:38:04;;;;;;;11.37;2.90;;;;;;;7.25;62.27;101750.16;31471679;28;20079;-74
2022/03/21 19:53:12;;;;;;;9.77;2.97;;;;;;;7.06;63.14;101742.84;31493443;28;20067;-74
2022/03/21 20:08:15;;;;;;;4.03;2.60;;;;;;;6.84;64.04;101747.78;31477648;28;20563;-73
2022/03/21 20:23:25;;;;;;;6.40;2.50;;;;;;;6.65;64.84;101745.03;31466370;28;20047;-74
2022/03/21 20:38:27;;;;;;;4.90;2.50;;;;;;;6.48;64.80;101754.28;31485515;28;20546;-74
2022/03/21 20:53:30;;;;;;;5.10;2.40;;;;;;;6.30;65.91;101745.00;31465118;28;20056;-74
2022/03/21 21:08:32;;;;;;;6.87;2.90;;;;;;;6.11;68.00;101745.72;31463348;28;20060;-76
2022/03/21 21:23:35;;;;;;;13.07;3.90;;;;;;;5.90;67.85;101752.47;31455610;28;20056;-76
2022/03/21 21:38:38;;;;;;;12.20;3.37;;;;;;;5.66;68.47;101746.06;31454735;28;20048;-74
2022/03/21 21:53:40;;;;;;;9.33;2.80;;;;;;;5.50;68.41;101750.63;31456215;28;20049;-78
2022/03/21 22:08:42;;;;;;;5.37;3.03;;;;;;;5.46;68.68;101755.13;31475995;28;20060;-73
2022/03/21 22:23:44;;;;;;;6.97;2.53;;;;;;;5.27;68.68;101763.81;31482863;28;20055;-74
2022/03/21 22:38:46;;;;;;;7.93;2.70;;;;;;;4.96;71.20;101771.78;31473324;28;20397;-74
2022/03/21 22:53:48;;;;;;;9.30;3.03;;;;;;;4.70;71.53;101766.75;31477484;28;20485;-74
2022/03/21 23:08:51;;;;;;;9.67;2.53;;;;;;;4.47;71.31;101773.72;31466564;28;20075;-74
2022/03/21 23:23:53;;;;;;;8.87;3.13;;;;;;;4.24;72.72;101782.22;31492614;28;20045;-73
2022/03/21 23:38:55;;;;;;;7.23;2.50;;;;;;;4.04;73.14;101789.22;31485902;28;20729;-74
2022/03/21 23:53:57;;;;;;;8.13;3.00;;;;;;;3.87;73.76;101796.69;31491774;28;20071;-73
